This is the latest recevied weather packets stored in our database for station/object N4WFF. If no packets are shown the sender has not sent any weather packets the latest 1 day(s).
| Time | Temp. | Humidity | Pressure | Rain* | Wind** | Luminosity | Snow |
|---|---|---|---|---|---|---|---|
| 1778049356 | 18.33° C | 93% | 1014.2 hPa | 0 mm | 0.89 m/s, 190° | 0 W/m² | - |
| 1778049057 | 18.33° C | 93% | 1014.3 hPa | 0 mm | 0.89 m/s, 236° | 0 W/m² | - |
| 1778048755 | 18.33° C | 93% | 1014.2 hPa | 0 mm | 0.89 m/s, 212° | 0 W/m² | - |
| 1778048455 | 18.33° C | 92% | 1014.1 hPa | 0 mm | 0.45 m/s, 204° | 0 W/m² | - |
| 1778048158 | 18.33° C | 92% | 1014.1 hPa | 0 mm | 0.45 m/s, 199° | 0 W/m² | - |
| 1778047856 | 18.33° C | 92% | 1014.2 hPa | 0 mm | 0.45 m/s, 238° | 0 W/m² | - |
| 1778047555 | 18.33° C | 92% | 1014.2 hPa | 0 mm | 0.89 m/s, 215° | 0 W/m² | - |
| 1778047256 | 18.33° C | 92% | 1014.3 hPa | 0 mm | 0 m/s | 0 W/m² | - |
| 1778046955 | 18.33° C | 92% | 1014.4 hPa | 0 mm | 0.45 m/s, 221° | 0 W/m² | - |
| 1778046655 | 18.33° C | 91% | 1014.4 hPa | 0 mm | 1.34 m/s, 196° | 0 W/m² | - |
| 1778046355 | 18.33° C | 91% | 1014.5 hPa | 0 mm | 0.89 m/s, 213° | 0 W/m² | - |
| 1778046055 | 18.33° C | 91% | 1014.4 hPa | 0 mm | 1.34 m/s, 203° | 0 W/m² | - |
| 1778045755 | 18.33° C | 91% | 1014.5 hPa | 0 mm | 0.89 m/s, 209° | 0 W/m² | - |
| 1778045456 | 18.33° C | 91% | 1014.4 hPa | 0 mm | 0.89 m/s, 202° | 0 W/m² | - |
| 1778045155 | 18.33° C | 90% | 1014.5 hPa | 0 mm | 0.45 m/s, 224° | 0 W/m² | - |
| 1778044856 | 18.33° C | 90% | 1014.5 hPa | 0 mm | 0.89 m/s, 216° | 0 W/m² | - |
| 1778044555 | 18.33° C | 90% | 1014.5 hPa | 0 mm | 0.89 m/s, 204° | 0 W/m² | - |
| 1778044256 | 18.33° C | 90% | 1014.6 hPa | 0 mm | 0.89 m/s, 209° | 0 W/m² | - |
| 1778043956 | 18.89° C | 90% | 1014.7 hPa | 0 mm | 0.45 m/s, 217° | 0 W/m² | - |
| 1778043656 | 18.89° C | 89% | 1014.7 hPa | 0 mm | 0.45 m/s, 198° | 0 W/m² | - |
| 1778043356 | 18.89° C | 89% | 1014.7 hPa | 0 mm | 0.45 m/s, 207° | 0 W/m² | - |
| 1778043056 | 18.89° C | 89% | 1014.8 hPa | 0 mm | 0.89 m/s, 222° | 0 W/m² | - |
| 1778042757 | 18.89° C | 89% | 1014.7 hPa | 0 mm | 0.45 m/s, 235° | 0 W/m² | - |
| 1778042455 | 18.89° C | 89% | 1014.6 hPa | 0 mm | 0.89 m/s, 188° | 0 W/m² | - |
| 1778042155 | 18.89° C | 89% | 1014.6 hPa | 0 mm | 0 m/s | 0 W/m² | - |
* Rain latest hour (hover to see other rain measurements)
** Current wind speed in m/s (hover to see current wind gust speed)